sensor_id;sensor_type;location;lat;lon;timestamp;P1;durP1;ratioP1;P2;durP2;ratioP2
41943;SDS011;27636;52.610;13.244;2023-01-23T00:03:47;22.30;;;8.45;;
41943;SDS011;27636;52.610;13.244;2023-01-23T00:08:51;27.55;;;8.63;;
41943;SDS011;27636;52.610;13.244;2023-01-23T00:13:54;25.73;;;9.95;;
41943;SDS011;27636;52.610;13.244;2023-01-23T00:19:00;23.95;;;9.20;;
41943;SDS011;27636;52.610;13.244;2023-01-23T00:24:04;19.52;;;7.82;;
41943;SDS011;27636;52.610;13.244;2023-01-23T00:29:08;25.83;;;9.33;;
41943;SDS011;27636;52.610;13.244;2023-01-23T00:34:13;23.38;;;9.55;;
41943;SDS011;27636;52.610;13.244;2023-01-23T00:44:21;25.07;;;10.97;;
41943;SDS011;27636;52.610;13.244;2023-01-23T00:49:26;20.02;;;6.82;;
41943;SDS011;27636;52.610;13.244;2023-01-23T00:54:29;28.17;;;9.90;;
41943;SDS011;27636;52.610;13.244;2023-01-23T00:59:33;29.88;;;9.68;;
41943;SDS011;27636;52.610;13.244;2023-01-23T01:04:37;22.05;;;9.70;;
41943;SDS011;27636;52.610;13.244;2023-01-23T01:09:41;30.38;;;10.73;;
41943;SDS011;27636;52.610;13.244;2023-01-23T01:14:44;20.13;;;9.68;;
41943;SDS011;27636;52.610;13.244;2023-01-23T01:19:51;23.58;;;8.23;;
41943;SDS011;27636;52.610;13.244;2023-01-23T01:24:54;18.65;;;9.00;;
41943;SDS011;27636;52.610;13.244;2023-01-23T01:29:59;22.23;;;9.80;;
41943;SDS011;27636;52.610;13.244;2023-01-23T01:35:04;21.08;;;8.55;;
41943;SDS011;27636;52.610;13.244;2023-01-23T01:40:11;24.02;;;10.02;;
41943;SDS011;27636;52.610;13.244;2023-01-23T01:50:59;29.35;;;10.98;;
41943;SDS011;27636;52.610;13.244;2023-01-23T01:56:06;25.60;;;9.88;;
41943;SDS011;27636;52.610;13.244;2023-01-23T02:01:12;29.02;;;9.23;;
41943;SDS011;27636;52.610;13.244;2023-01-23T02:06:17;21.45;;;8.77;;
41943;SDS011;27636;52.610;13.244;2023-01-23T02:11:21;22.42;;;9.27;;
41943;SDS011;27636;52.610;13.244;2023-01-23T02:16:25;26.83;;;9.63;;
41943;SDS011;27636;52.610;13.244;2023-01-23T02:21:32;26.48;;;9.88;;
41943;SDS011;27636;52.610;13.244;2023-01-23T02:26:40;28.15;;;10.50;;
41943;SDS011;27636;52.610;13.244;2023-01-23T02:31:46;28.25;;;9.75;;
41943;SDS011;27636;52.610;13.244;2023-01-23T02:36:51;21.00;;;9.52;;
41943;SDS011;27636;52.610;13.244;2023-01-23T02:41:56;27.08;;;10.73;;
41943;SDS011;27636;52.610;13.244;2023-01-23T02:47:15;25.13;;;10.13;;
41943;SDS011;27636;52.610;13.244;2023-01-23T02:52:18;26.48;;;9.48;;
41943;SDS011;27636;52.610;13.244;2023-01-23T02:57:23;24.23;;;8.90;;
41943;SDS011;27636;52.610;13.244;2023-01-23T03:02:26;26.08;;;7.85;;
41943;SDS011;27636;52.610;13.244;2023-01-23T03:07:29;27.92;;;9.82;;
41943;SDS011;27636;52.610;13.244;2023-01-23T03:12:34;29.20;;;10.52;;
41943;SDS011;27636;52.610;13.244;2023-01-23T03:17:44;26.23;;;8.70;;
41943;SDS011;27636;52.610;13.244;2023-01-23T03:22:48;23.17;;;11.20;;
41943;SDS011;27636;52.610;13.244;2023-01-23T03:27:53;21.23;;;8.57;;
41943;SDS011;27636;52.610;13.244;2023-01-23T03:32:57;28.33;;;9.82;;
41943;SDS011;27636;52.610;13.244;2023-01-23T03:38:00;27.60;;;9.15;;
41943;SDS011;27636;52.610;13.244;2023-01-23T03:43:05;32.55;;;10.60;;
41943;SDS011;27636;52.610;13.244;2023-01-23T03:48:12;23.08;;;9.00;;
41943;SDS011;27636;52.610;13.244;2023-01-23T03:53:18;30.30;;;11.82;;
41943;SDS011;27636;52.610;13.244;2023-01-23T03:58:24;27.25;;;9.40;;
41943;SDS011;27636;52.610;13.244;2023-01-23T04:03:28;23.30;;;9.25;;
41943;SDS011;27636;52.610;13.244;2023-01-23T04:08:32;20.25;;;9.18;;
41943;SDS011;27636;52.610;13.244;2023-01-23T04:13:37;23.70;;;10.13;;
41943;SDS011;27636;52.610;13.244;2023-01-23T04:18:41;26.95;;;9.57;;
41943;SDS011;27636;52.610;13.244;2023-01-23T04:23:45;28.85;;;9.05;;
41943;SDS011;27636;52.610;13.244;2023-01-23T04:28:50;26.42;;;10.65;;
41943;SDS011;27636;52.610;13.244;2023-01-23T04:33:53;29.60;;;9.70;;
41943;SDS011;27636;52.610;13.244;2023-01-23T04:38:58;29.53;;;9.57;;
41943;SDS011;27636;52.610;13.244;2023-01-23T04:44:04;30.10;;;10.05;;
41943;SDS011;27636;52.610;13.244;2023-01-23T04:50:00;24.10;;;9.57;;
41943;SDS011;27636;52.610;13.244;2023-01-23T04:55:08;27.80;;;10.80;;
41943;SDS011;27636;52.610;13.244;2023-01-23T05:00:13;25.35;;;10.00;;
41943;SDS011;27636;52.610;13.244;2023-01-23T05:05:17;26.75;;;10.80;;
41943;SDS011;27636;52.610;13.244;2023-01-23T05:10:25;29.88;;;10.57;;
41943;SDS011;27636;52.610;13.244;2023-01-23T05:15:32;21.83;;;8.55;;
41943;SDS011;27636;52.610;13.244;2023-01-23T05:20:36;35.30;;;10.80;;
41943;SDS011;27636;52.610;13.244;2023-01-23T05:25:40;28.02;;;11.75;;
41943;SDS011;27636;52.610;13.244;2023-01-23T05:30:45;31.65;;;10.32;;
41943;SDS011;27636;52.610;13.244;2023-01-23T05:35:58;31.07;;;10.90;;
41943;SDS011;27636;52.610;13.244;2023-01-23T05:41:02;32.47;;;10.90;;
41943;SDS011;27636;52.610;13.244;2023-01-23T05:46:43;26.77;;;9.90;;
41943;SDS011;27636;52.610;13.244;2023-01-23T05:51:47;28.33;;;10.10;;
41943;SDS011;27636;52.610;13.244;2023-01-23T05:56:51;25.45;;;11.07;;
41943;SDS011;27636;52.610;13.244;2023-01-23T06:02:11;28.55;;;10.27;;
41943;SDS011;27636;52.610;13.244;2023-01-23T06:07:53;26.33;;;10.57;;
41943;SDS011;27636;52.610;13.244;2023-01-23T06:12:56;23.20;;;9.32;;
41943;SDS011;27636;52.610;13.244;2023-01-23T06:18:01;21.98;;;10.45;;
41943;SDS011;27636;52.610;13.244;2023-01-23T06:23:05;22.02;;;10.48;;
41943;SDS011;27636;52.610;13.244;2023-01-23T06:28:08;26.27;;;10.95;;
41943;SDS011;27636;52.610;13.244;2023-01-23T06:33:13;25.50;;;11.57;;
41943;SDS011;27636;52.610;13.244;2023-01-23T06:38:17;34.03;;;12.48;;
41943;SDS011;27636;52.610;13.244;2023-01-23T06:43:23;22.08;;;9.77;;
41943;SDS011;27636;52.610;13.244;2023-01-23T06:48:29;23.75;;;10.05;;
41943;SDS011;27636;52.610;13.244;2023-01-23T06:53:34;23.70;;;10.43;;
41943;SDS011;27636;52.610;13.244;2023-01-23T06:58:37;27.70;;;10.82;;
41943;SDS011;27636;52.610;13.244;2023-01-23T07:03:50;23.15;;;8.90;;
41943;SDS011;27636;52.610;13.244;2023-01-23T07:08:54;21.80;;;9.13;;
41943;SDS011;27636;52.610;13.244;2023-01-23T07:13:58;24.83;;;10.52;;
41943;SDS011;27636;52.610;13.244;2023-01-23T07:19:04;22.60;;;8.48;;
41943;SDS011;27636;52.610;13.244;2023-01-23T07:24:13;29.88;;;8.63;;
41943;SDS011;27636;52.610;13.244;2023-01-23T07:29:16;24.05;;;10.00;;
41943;SDS011;27636;52.610;13.244;2023-01-23T07:34:21;28.13;;;11.40;;
41943;SDS011;27636;52.610;13.244;2023-01-23T07:39:24;29.02;;;10.80;;
41943;SDS011;27636;52.610;13.244;2023-01-23T07:44:28;20.40;;;9.60;;
41943;SDS011;27636;52.610;13.244;2023-01-23T07:49:32;25.52;;;10.23;;
41943;SDS011;27636;52.610;13.244;2023-01-23T07:54:36;24.50;;;9.57;;
41943;SDS011;27636;52.610;13.244;2023-01-23T07:59:39;40.50;;;12.88;;
41943;SDS011;27636;52.610;13.244;2023-01-23T08:04:44;22.45;;;9.00;;
41943;SDS011;27636;52.610;13.244;2023-01-23T08:09:47;24.75;;;10.20;;
41943;SDS011;27636;52.610;13.244;2023-01-23T08:14:51;26.38;;;9.52;;
41943;SDS011;27636;52.610;13.244;2023-01-23T08:19:56;28.73;;;10.65;;
41943;SDS011;27636;52.610;13.244;2023-01-23T08:24:59;23.05;;;9.45;;
41943;SDS011;27636;52.610;13.244;2023-01-23T08:30:03;29.98;;;11.93;;
41943;SDS011;27636;52.610;13.244;2023-01-23T08:35:08;28.93;;;8.87;;
41943;SDS011;27636;52.610;13.244;2023-01-23T08:40:12;24.98;;;10.65;;
41943;SDS011;27636;52.610;13.244;2023-01-23T08:45:16;26.27;;;12.20;;
41943;SDS011;27636;52.610;13.244;2023-01-23T08:50:21;30.70;;;9.85;;
41943;SDS011;27636;52.610;13.244;2023-01-23T08:55:24;25.33;;;9.30;;
41943;SDS011;27636;52.610;13.244;2023-01-23T09:00:30;20.58;;;7.97;;
41943;SDS011;27636;52.610;13.244;2023-01-23T09:05:34;27.58;;;10.20;;
41943;SDS011;27636;52.610;13.244;2023-01-23T09:10:38;28.33;;;10.90;;
41943;SDS011;27636;52.610;13.244;2023-01-23T09:15:41;24.13;;;9.65;;
41943;SDS011;27636;52.610;13.244;2023-01-23T09:20:46;24.88;;;10.75;;
41943;SDS011;27636;52.610;13.244;2023-01-23T09:25:49;31.35;;;10.15;;
41943;SDS011;27636;52.610;13.244;2023-01-23T09:30:53;23.52;;;10.52;;
41943;SDS011;27636;52.610;13.244;2023-01-23T09:35:57;25.55;;;9.43;;
41943;SDS011;27636;52.610;13.244;2023-01-23T09:41:06;29.40;;;11.23;;
41943;SDS011;27636;52.610;13.244;2023-01-23T09:46:12;23.73;;;10.43;;
41943;SDS011;27636;52.610;13.244;2023-01-23T09:51:24;25.40;;;10.25;;
41943;SDS011;27636;52.610;13.244;2023-01-23T09:56:32;26.00;;;10.18;;
41943;SDS011;27636;52.610;13.244;2023-01-23T10:01:39;31.73;;;11.25;;
41943;SDS011;27636;52.610;13.244;2023-01-23T10:06:49;28.52;;;9.68;;
41943;SDS011;27636;52.610;13.244;2023-01-23T10:12:24;23.98;;;8.48;;
41943;SDS011;27636;52.610;13.244;2023-01-23T10:17:40;28.50;;;9.60;;
41943;SDS011;27636;52.610;13.244;2023-01-23T10:22:53;25.60;;;9.15;;
41943;SDS011;27636;52.610;13.244;2023-01-23T10:28:14;21.13;;;9.20;;
41943;SDS011;27636;52.610;13.244;2023-01-23T10:33:29;23.42;;;9.18;;
41943;SDS011;27636;52.610;13.244;2023-01-23T10:38:41;24.45;;;9.13;;
41943;SDS011;27636;52.610;13.244;2023-01-23T10:50:14;29.95;;;9.63;;
41943;SDS011;27636;52.610;13.244;2023-01-23T10:55:27;32.33;;;11.30;;
41943;SDS011;27636;52.610;13.244;2023-01-23T11:00:33;23.67;;;9.67;;
41943;SDS011;27636;52.610;13.244;2023-01-23T11:05:38;22.25;;;8.73;;
41943;SDS011;27636;52.610;13.244;2023-01-23T11:11:10;21.10;;;9.68;;
41943;SDS011;27636;52.610;13.244;2023-01-23T11:21:25;29.20;;;10.45;;
41943;SDS011;27636;52.610;13.244;2023-01-23T11:26:31;19.92;;;8.27;;
41943;SDS011;27636;52.610;13.244;2023-01-23T11:31:35;29.88;;;9.82;;
41943;SDS011;27636;52.610;13.244;2023-01-23T11:36:40;24.67;;;10.57;;
41943;SDS011;27636;52.610;13.244;2023-01-23T11:41:51;29.83;;;9.65;;
41943;SDS011;27636;52.610;13.244;2023-01-23T11:52:24;22.85;;;10.15;;
41943;SDS011;27636;52.610;13.244;2023-01-23T11:57:44;24.52;;;10.95;;
41943;SDS011;27636;52.610;13.244;2023-01-23T12:03:09;23.15;;;8.20;;
41943;SDS011;27636;52.610;13.244;2023-01-23T12:08:32;26.58;;;10.93;;
41943;SDS011;27636;52.610;13.244;2023-01-23T12:13:53;26.85;;;9.88;;
41943;SDS011;27636;52.610;13.244;2023-01-23T12:19:20;17.70;;;8.13;;
41943;SDS011;27636;52.610;13.244;2023-01-23T12:24:39;23.17;;;9.45;;
41943;SDS011;27636;52.610;13.244;2023-01-23T12:30:20;19.75;;;9.75;;
41943;SDS011;27636;52.610;13.244;2023-01-23T12:35:35;24.23;;;9.90;;
41943;SDS011;27636;52.610;13.244;2023-01-23T12:45:57;18.70;;;7.72;;
41943;SDS011;27636;52.610;13.244;2023-01-23T12:51:10;16.50;;;9.65;;
41943;SDS011;27636;52.610;13.244;2023-01-23T12:56:18;26.30;;;9.63;;
41943;SDS011;27636;52.610;13.244;2023-01-23T13:01:36;23.17;;;9.30;;
41943;SDS011;27636;52.610;13.244;2023-01-23T13:07:07;28.55;;;9.15;;
41943;SDS011;27636;52.610;13.244;2023-01-23T13:12:18;20.65;;;9.13;;
41943;SDS011;27636;52.610;13.244;2023-01-23T13:17:27;25.67;;;8.30;;
41943;SDS011;27636;52.610;13.244;2023-01-23T13:22:32;17.50;;;8.50;;
41943;SDS011;27636;52.610;13.244;2023-01-23T13:27:40;24.70;;;9.30;;
41943;SDS011;27636;52.610;13.244;2023-01-23T13:32:54;18.73;;;8.43;;
41943;SDS011;27636;52.610;13.244;2023-01-23T13:38:12;18.65;;;7.57;;
41943;SDS011;27636;52.610;13.244;2023-01-23T13:43:42;17.75;;;7.05;;
41943;SDS011;27636;52.610;13.244;2023-01-23T13:48:58;18.10;;;7.60;;
41943;SDS011;27636;52.610;13.244;2023-01-23T13:54:39;14.93;;;7.05;;
41943;SDS011;27636;52.610;13.244;2023-01-23T14:00:16;18.67;;;8.50;;
41943;SDS011;27636;52.610;13.244;2023-01-23T14:05:36;18.17;;;8.38;;
41943;SDS011;27636;52.610;13.244;2023-01-23T14:10:55;18.17;;;7.20;;
41943;SDS011;27636;52.610;13.244;2023-01-23T14:16:13;26.58;;;8.02;;
41943;SDS011;27636;52.610;13.244;2023-01-23T14:21:39;15.82;;;6.57;;
41943;SDS011;27636;52.610;13.244;2023-01-23T14:26:51;19.00;;;6.65;;
41943;SDS011;27636;52.610;13.244;2023-01-23T14:32:19;16.00;;;7.20;;
41943;SDS011;27636;52.610;13.244;2023-01-23T14:37:26;22.15;;;7.43;;
41943;SDS011;27636;52.610;13.244;2023-01-23T14:42:31;15.70;;;7.13;;
41943;SDS011;27636;52.610;13.244;2023-01-23T14:47:36;20.23;;;7.87;;
41943;SDS011;27636;52.610;13.244;2023-01-23T14:52:47;19.30;;;7.15;;
41943;SDS011;27636;52.610;13.244;2023-01-23T14:57:59;15.18;;;6.90;;
41943;SDS011;27636;52.610;13.244;2023-01-23T15:03:05;16.17;;;6.38;;
41943;SDS011;27636;52.610;13.244;2023-01-23T15:08:17;16.42;;;5.68;;
41943;SDS011;27636;52.610;13.244;2023-01-23T15:13:23;15.75;;;6.97;;
41943;SDS011;27636;52.610;13.244;2023-01-23T15:18:51;11.00;;;5.45;;
41943;SDS011;27636;52.610;13.244;2023-01-23T15:23:59;19.85;;;7.20;;
41943;SDS011;27636;52.610;13.244;2023-01-23T15:29:29;16.25;;;7.63;;
41943;SDS011;27636;52.610;13.244;2023-01-23T15:34:34;17.63;;;7.95;;
41943;SDS011;27636;52.610;13.244;2023-01-23T15:39:46;14.60;;;5.75;;
41943;SDS011;27636;52.610;13.244;2023-01-23T15:44:51;16.98;;;7.03;;
41943;SDS011;27636;52.610;13.244;2023-01-23T15:49:55;17.80;;;7.50;;
41943;SDS011;27636;52.610;13.244;2023-01-23T15:55:00;13.15;;;6.25;;
41943;SDS011;27636;52.610;13.244;2023-01-23T16:00:12;15.88;;;6.93;;
41943;SDS011;27636;52.610;13.244;2023-01-23T16:05:16;17.38;;;7.22;;
41943;SDS011;27636;52.610;13.244;2023-01-23T16:10:22;15.98;;;6.13;;
41943;SDS011;27636;52.610;13.244;2023-01-23T16:15:28;16.50;;;7.18;;
41943;SDS011;27636;52.610;13.244;2023-01-23T16:20:32;14.32;;;6.47;;
41943;SDS011;27636;52.610;13.244;2023-01-23T16:25:39;15.65;;;8.27;;
41943;SDS011;27636;52.610;13.244;2023-01-23T16:30:47;20.25;;;8.38;;
41943;SDS011;27636;52.610;13.244;2023-01-23T16:40:58;19.20;;;8.00;;
41943;SDS011;27636;52.610;13.244;2023-01-23T16:46:03;16.20;;;7.07;;
41943;SDS011;27636;52.610;13.244;2023-01-23T16:51:10;12.32;;;5.20;;
41943;SDS011;27636;52.610;13.244;2023-01-23T16:56:20;15.13;;;6.20;;
41943;SDS011;27636;52.610;13.244;2023-01-23T17:01:26;13.48;;;7.05;;
41943;SDS011;27636;52.610;13.244;2023-01-23T17:06:31;18.08;;;7.13;;
41943;SDS011;27636;52.610;13.244;2023-01-23T17:11:36;16.40;;;7.13;;
41943;SDS011;27636;52.610;13.244;2023-01-23T17:16:42;21.50;;;8.30;;
41943;SDS011;27636;52.610;13.244;2023-01-23T17:21:47;22.33;;;8.70;;
41943;SDS011;27636;52.610;13.244;2023-01-23T17:26:52;15.70;;;7.05;;
41943;SDS011;27636;52.610;13.244;2023-01-23T17:31:56;12.85;;;6.25;;
41943;SDS011;27636;52.610;13.244;2023-01-23T17:36:59;20.13;;;8.70;;
41943;SDS011;27636;52.610;13.244;2023-01-23T17:42:04;19.48;;;8.70;;
41943;SDS011;27636;52.610;13.244;2023-01-23T17:47:08;14.32;;;6.07;;
41943;SDS011;27636;52.610;13.244;2023-01-23T17:52:13;16.33;;;6.95;;
41943;SDS011;27636;52.610;13.244;2023-01-23T17:57:18;16.75;;;7.78;;
41943;SDS011;27636;52.610;13.244;2023-01-23T18:02:22;19.25;;;7.22;;
41943;SDS011;27636;52.610;13.244;2023-01-23T18:07:28;20.45;;;7.60;;
41943;SDS011;27636;52.610;13.244;2023-01-23T18:12:36;15.95;;;6.43;;
41943;SDS011;27636;52.610;13.244;2023-01-23T18:17:47;23.67;;;8.07;;
41943;SDS011;27636;52.610;13.244;2023-01-23T18:22:54;17.02;;;7.28;;
41943;SDS011;27636;52.610;13.244;2023-01-23T18:28:00;19.93;;;9.10;;
41943;SDS011;27636;52.610;13.244;2023-01-23T18:38:44;16.40;;;6.50;;
41943;SDS011;27636;52.610;13.244;2023-01-23T18:44:08;16.23;;;6.40;;
41943;SDS011;27636;52.610;13.244;2023-01-23T18:49:18;17.13;;;7.63;;
41943;SDS011;27636;52.610;13.244;2023-01-23T18:54:36;20.08;;;9.35;;
41943;SDS011;27636;52.610;13.244;2023-01-23T18:59:46;16.95;;;7.90;;
41943;SDS011;27636;52.610;13.244;2023-01-23T19:05:06;14.43;;;5.97;;
41943;SDS011;27636;52.610;13.244;2023-01-23T19:10:23;20.73;;;7.30;;
41943;SDS011;27636;52.610;13.244;2023-01-23T19:15:32;18.90;;;6.53;;
41943;SDS011;27636;52.610;13.244;2023-01-23T19:20:41;16.88;;;7.28;;
41943;SDS011;27636;52.610;13.244;2023-01-23T19:25:48;18.60;;;7.68;;
41943;SDS011;27636;52.610;13.244;2023-01-23T19:30:53;22.60;;;8.10;;
41943;SDS011;27636;52.610;13.244;2023-01-23T19:35:57;16.92;;;7.68;;
41943;SDS011;27636;52.610;13.244;2023-01-23T19:41:01;14.57;;;6.45;;
41943;SDS011;27636;52.610;13.244;2023-01-23T19:46:06;14.95;;;6.72;;
41943;SDS011;27636;52.610;13.244;2023-01-23T19:51:12;14.35;;;7.25;;
41943;SDS011;27636;52.610;13.244;2023-01-23T19:56:18;17.05;;;8.02;;
41943;SDS011;27636;52.610;13.244;2023-01-23T20:01:25;15.15;;;6.13;;
41943;SDS011;27636;52.610;13.244;2023-01-23T20:06:34;12.25;;;6.22;;
41943;SDS011;27636;52.610;13.244;2023-01-23T20:11:42;16.83;;;7.13;;
41943;SDS011;27636;52.610;13.244;2023-01-23T20:16:47;17.48;;;7.53;;
41943;SDS011;27636;52.610;13.244;2023-01-23T20:21:50;13.63;;;6.72;;
41943;SDS011;27636;52.610;13.244;2023-01-23T20:26:53;16.00;;;6.80;;
41943;SDS011;27636;52.610;13.244;2023-01-23T20:31:58;19.52;;;7.47;;
41943;SDS011;27636;52.610;13.244;2023-01-23T20:37:01;17.83;;;7.93;;
41943;SDS011;27636;52.610;13.244;2023-01-23T20:42:04;15.23;;;6.30;;
41943;SDS011;27636;52.610;13.244;2023-01-23T20:47:09;14.65;;;6.75;;
41943;SDS011;27636;52.610;13.244;2023-01-23T20:52:13;13.05;;;6.60;;
41943;SDS011;27636;52.610;13.244;2023-01-23T20:57:35;16.42;;;6.93;;
41943;SDS011;27636;52.610;13.244;2023-01-23T21:03:06;13.63;;;6.32;;
41943;SDS011;27636;52.610;13.244;2023-01-23T21:08:09;14.52;;;7.07;;
41943;SDS011;27636;52.610;13.244;2023-01-23T21:13:13;17.35;;;7.65;;
41943;SDS011;27636;52.610;13.244;2023-01-23T21:18:20;17.77;;;7.70;;
41943;SDS011;27636;52.610;13.244;2023-01-23T21:23:23;14.25;;;7.35;;
41943;SDS011;27636;52.610;13.244;2023-01-23T21:28:27;17.80;;;8.00;;
41943;SDS011;27636;52.610;13.244;2023-01-23T21:38:36;20.88;;;7.22;;
41943;SDS011;27636;52.610;13.244;2023-01-23T21:43:40;18.02;;;6.35;;
41943;SDS011;27636;52.610;13.244;2023-01-23T21:48:44;12.95;;;5.70;;
41943;SDS011;27636;52.610;13.244;2023-01-23T21:53:48;17.17;;;6.53;;
41943;SDS011;27636;52.610;13.244;2023-01-23T21:58:52;17.35;;;8.63;;
41943;SDS011;27636;52.610;13.244;2023-01-23T22:03:58;16.90;;;8.02;;
41943;SDS011;27636;52.610;13.244;2023-01-23T22:09:03;21.27;;;6.95;;
41943;SDS011;27636;52.610;13.244;2023-01-23T22:14:06;18.42;;;7.20;;
41943;SDS011;27636;52.610;13.244;2023-01-23T22:19:12;17.23;;;8.57;;
41943;SDS011;27636;52.610;13.244;2023-01-23T22:24:15;23.10;;;9.35;;
41943;SDS011;27636;52.610;13.244;2023-01-23T22:29:19;16.98;;;8.05;;
41943;SDS011;27636;52.610;13.244;2023-01-23T22:34:25;19.75;;;7.90;;
41943;SDS011;27636;52.610;13.244;2023-01-23T22:39:29;22.05;;;7.45;;
41943;SDS011;27636;52.610;13.244;2023-01-23T22:44:33;18.30;;;8.23;;
41943;SDS011;27636;52.610;13.244;2023-01-23T22:49:37;21.65;;;6.45;;
41943;SDS011;27636;52.610;13.244;2023-01-23T22:54:40;16.57;;;8.37;;
41943;SDS011;27636;52.610;13.244;2023-01-23T22:59:44;26.23;;;8.23;;
41943;SDS011;27636;52.610;13.244;2023-01-23T23:04:51;21.92;;;8.95;;
41943;SDS011;27636;52.610;13.244;2023-01-23T23:09:54;23.73;;;9.95;;
41943;SDS011;27636;52.610;13.244;2023-01-23T23:14:58;24.58;;;8.70;;
41943;SDS011;27636;52.610;13.244;2023-01-23T23:20:03;25.95;;;9.38;;
41943;SDS011;27636;52.610;13.244;2023-01-23T23:25:09;21.13;;;9.55;;
41943;SDS011;27636;52.610;13.244;2023-01-23T23:30:13;17.80;;;8.45;;
41943;SDS011;27636;52.610;13.244;2023-01-23T23:35:18;29.03;;;10.77;;
41943;SDS011;27636;52.610;13.244;2023-01-23T23:40:22;21.90;;;8.60;;
41943;SDS011;27636;52.610;13.244;2023-01-23T23:45:25;24.92;;;8.52;;
41943;SDS011;27636;52.610;13.244;2023-01-23T23:50:30;17.67;;;7.18;;
41943;SDS011;27636;52.610;13.244;2023-01-23T23:55:34;22.75;;;9.85;;
